Time;durP1;ratioP1;P1;durP2;ratioP2;P2;SDS_P1;SDS_P2;PMS_P1;PMS_P2;Temp;Humidity;BMP_temperature;BMP_pressure;BME280_temperature;BME280_humidity;BME280_pressure;Samples;Min_cycle;Max_cycle;Signal;HPM_P1;HPM_P2
2022/06/09 00:00:51;;;;;;;42.45;16.52;;;15.10;99.90;;;;;;5128364;27;20034;-74
2022/06/09 00:03:33;;;;;;;36.22;16.00;;;15.00;99.90;;;;;;5123323;27;20038;-74
2022/06/09 00:05:59;;;;;;;38.63;15.70;;;15.00;99.90;;;;;;5140178;27;20035;-74
2022/06/09 00:08:28;;;;;;;35.95;14.98;;;14.90;99.90;;;;;;5106652;27;20035;-74
2022/06/09 00:11:00;;;;;;;43.72;15.48;;;15.00;99.90;;;;;;5117781;27;20039;-74
2022/06/09 00:13:26;;;;;;;34.13;13.98;;;14.80;99.90;;;;;;5122754;27;20095;-74
2022/06/09 00:15:51;;;;;;;36.97;14.18;;;14.80;99.90;;;;;;5118803;27;20485;-74
2022/06/09 00:18:17;;;;;;;39.00;13.77;;;14.80;99.90;;;;;;5108454;27;20038;-73
2022/06/09 00:20:43;;;;;;;40.20;14.73;;;14.80;99.90;;;;;;5128561;27;20039;-74
2022/06/09 00:23:10;;;;;;;34.22;14.15;;;14.80;99.90;;;;;;5122549;27;20057;-74
2022/06/09 00:25:36;;;;;;;39.83;13.75;;;14.80;99.90;;;;;;5127287;27;20042;-74
2022/06/09 00:28:02;;;;;;;34.03;13.57;;;14.70;99.90;;;;;;5124879;27;20492;-74
2022/06/09 00:30:28;;;;;;;35.80;12.82;;;14.70;99.90;;;;;;5119491;27;20064;-73
2022/06/09 00:32:53;;;;;;;36.65;13.32;;;14.70;99.90;;;;;;5122944;27;20481;-74
2022/06/09 00:35:19;;;;;;;38.38;12.57;;;14.60;99.90;;;;;;5122755;27;20058;-72
2022/06/09 00:37:45;;;;;;;40.38;13.02;;;14.60;99.90;;;;;;5120722;27;20118;-73
2022/06/09 00:40:14;;;;;;;39.53;12.75;;;14.50;99.90;;;;;;5118681;27;20099;-74
2022/06/09 00:42:40;;;;;;;36.78;13.32;;;14.50;99.90;;;;;;5119822;27;20376;-73
2022/06/09 00:45:33;;;;;;;43.75;12.15;;;14.40;99.90;;;;;;5128354;27;22659;-73
2022/06/09 00:48:02;;;;;;;;;;;14.40;99.90;;;;;;5125557;27;20422;-73
2022/06/09 00:50:30;;;;;;;31.30;12.20;;;14.30;99.90;;;;;;5122862;27;20269;-73
2022/06/09 00:53:00;;;;;;;38.38;12.48;;;14.30;99.90;;;;;;5123164;27;20043;-72
2022/06/09 00:55:28;;;;;;;34.78;12.93;;;14.30;99.90;;;;;;5123016;27;20392;-73
2022/06/09 00:58:02;;;;;;;34.35;11.95;;;14.20;99.90;;;;;;5123496;27;20038;-73
2022/06/09 01:00:43;;;;;;;40.95;12.90;;;14.20;99.90;;;;;;5121067;27;20043;-73
2022/06/09 01:03:08;;;;;;;35.90;12.07;;;14.20;99.90;;;;;;5135987;27;20497;-73
2022/06/09 01:05:39;;;;;;;41.28;12.98;;;14.10;99.90;;;;;;5122121;27;20041;-73
2022/06/09 01:08:06;;;;;;;36.55;12.88;;;14.10;99.90;;;;;;5123101;27;20381;-72
2022/06/09 01:10:31;;;;;;;35.90;12.60;;;14.10;99.90;;;;;;5122814;27;20420;-73
2022/06/09 01:12:58;;;;;;;36.85;12.15;;;14.20;99.90;;;;;;5141251;27;20024;-73
2022/06/09 01:15:35;;;;;;;38.35;12.30;;;14.10;99.90;;;;;;5122505;27;20454;-72
2022/06/09 01:18:07;;;;;;;37.65;11.55;;;14.10;99.90;;;;;;5127975;27;20113;-73
2022/06/09 01:20:58;;;;;;;42.60;12.43;;;14.10;99.90;;;;;;5123221;27;20155;-72
2022/06/09 01:23:42;;;;;;;34.00;10.68;;;14.10;99.90;;;;;;5120059;27;20865;-73
2022/06/09 01:26:35;;;;;;;32.63;10.77;;;14.10;99.90;;;;;;5142931;27;20489;-73
2022/06/09 01:29:08;;;;;;;32.05;11.18;;;14.00;99.90;;;;;;5117487;27;20075;-72
2022/06/09 01:31:55;;;;;;;36.40;11.20;;;14.00;99.90;;;;;;5118165;27;20561;-72
2022/06/09 01:34:43;;;;;;;32.97;10.25;;;13.90;99.90;;;;;;5121848;27;20054;-73
2022/06/09 01:37:25;;;;;;;32.22;10.48;;;13.90;99.90;;;;;;5123821;27;20118;-72
2022/06/09 01:40:00;;;;;;;40.72;10.48;;;13.80;99.90;;;;;;5125351;27;20034;-72
2022/06/09 01:43:07;;;;;;;36.50;10.30;;;13.80;99.90;;;;;;5122210;27;20046;-73
2022/06/09 01:45:39;;;;;;;37.17;9.93;;;13.80;99.90;;;;;;5119693;27;20055;-72
2022/06/09 01:48:09;;;;;;;36.42;10.32;;;13.80;99.90;;;;;;5121820;27;20030;-72
2022/06/09 01:50:52;;;;;;;33.97;9.95;;;13.80;99.90;;;;;;5140420;27;20035;-73
2022/06/09 01:53:33;;;;;;;33.28;9.75;;;13.80;99.90;;;;;;5124057;27;20043;-73
2022/06/09 01:56:23;;;;;;;40.78;10.13;;;13.60;99.90;;;;;;5116293;27;20035;-72
2022/06/09 01:59:11;;;;;;;30.15;10.65;;;13.70;99.90;;;;;;5122306;27;20107;-72
2022/06/09 02:01:52;;;;;;;40.63;10.50;;;13.70;99.90;;;;;;5119638;27;20058;-72
2022/06/09 02:04:24;;;;;;;37.90;9.88;;;13.60;99.90;;;;;;5123041;27;20058;-72
2022/06/09 02:06:52;;;;;;;32.33;10.25;;;13.60;99.90;;;;;;5141287;27;20051;-72
2022/06/09 02:09:17;;;;;;;41.22;11.02;;;13.50;99.90;;;;;;5122402;27;20046;-71
2022/06/09 02:11:53;;;;;;;37.88;11.05;;;13.50;99.90;;;;;;5126827;27;20507;-72
2022/06/09 02:14:21;;;;;;;36.40;10.18;;;13.40;99.90;;;;;;5118293;27;20035;-71
2022/06/09 02:16:47;;;;;;;41.10;10.93;;;13.40;99.90;;;;;;5123352;27;20050;-72
2022/06/09 02:19:13;;;;;;;32.72;11.57;;;13.50;99.90;;;;;;5136613;27;20024;-72
2022/06/09 02:21:39;;;;;;;38.67;10.20;;;13.40;99.90;;;;;;5123573;27;20039;-73
2022/06/09 02:24:05;;;;;;;36.95;10.15;;;13.40;99.90;;;;;;5114955;27;20035;-72
2022/06/09 02:26:30;;;;;;;40.85;11.43;;;13.40;99.90;;;;;;5124441;27;20043;-73
2022/06/09 02:28:57;;;;;;;35.45;10.70;;;13.30;99.90;;;;;;5120756;27;20042;-72
2022/06/09 02:31:24;;;;;;;34.83;10.52;;;13.30;99.90;;;;;;5118570;27;20050;-72
2022/06/09 02:33:51;;;;;;;39.38;11.13;;;13.30;99.90;;;;;;5122558;27;20511;-72
2022/06/09 02:36:18;;;;;;;36.08;11.25;;;13.20;99.90;;;;;;5114101;27;20051;-72
2022/06/09 02:38:44;;;;;;;41.45;11.07;;;13.20;99.90;;;;;;5125804;27;20046;-73
2022/06/09 02:41:10;;;;;;;41.65;12.32;;;13.20;99.90;;;;;;5122855;27;20038;-73
2022/06/09 02:43:36;;;;;;;39.58;12.27;;;13.30;99.90;;;;;;5122863;27;20042;-73
2022/06/09 02:46:03;;;;;;;37.42;12.32;;;13.20;99.90;;;;;;5121077;27;20951;-73
2022/06/09 02:48:29;;;;;;;38.53;13.20;;;13.20;99.90;;;;;;5121206;27;20083;-72
2022/06/09 02:50:55;;;;;;;42.13;13.70;;;13.20;99.90;;;;;;5119603;27;20039;-72
2022/06/09 02:53:23;;;;;;;44.95;13.35;;;13.10;99.90;;;;;;5120310;27;20043;-72
2022/06/09 02:55:49;;;;;;;36.75;13.57;;;13.10;99.90;;;;;;5119614;27;20102;-71
2022/06/09 02:58:15;;;;;;;36.50;13.98;;;13.10;99.90;;;;;;5124193;27;20038;-72
2022/06/09 03:00:41;;;;;;;42.65;13.60;;;13.10;99.90;;;;;;5124102;27;20043;-72
2022/06/09 03:03:11;;;;;;;40.60;13.63;;;13.10;99.90;;;;;;5129691;27;20062;-72
2022/06/09 03:05:37;;;;;;;37.45;14.55;;;13.20;99.90;;;;;;5123138;27;20051;-71
2022/06/09 03:08:04;;;;;;;45.42;15.18;;;13.10;99.90;;;;;;5123199;27;20046;-73
2022/06/09 03:10:30;;;;;;;44.05;13.52;;;13.10;99.90;;;;;;5140968;27;20047;-72
2022/06/09 03:12:55;;;;;;;42.25;14.52;;;13.00;99.90;;;;;;5125892;27;20046;-72
2022/06/09 03:15:23;;;;;;;42.47;14.60;;;13.00;99.90;;;;;;5124079;27;20043;-71
2022/06/09 03:17:49;;;;;;;48.67;14.07;;;13.00;99.90;;;;;;5120740;27;20054;-72
2022/06/09 03:20:23;;;;;;;45.38;14.05;;;13.00;99.90;;;;;;5123716;27;20077;-71
2022/06/09 03:22:48;;;;;;;39.55;13.68;;;13.00;99.90;;;;;;5122449;27;20129;-71
2022/06/09 03:25:14;;;;;;;36.92;13.93;;;13.00;99.90;;;;;;5112630;27;20198;-71
2022/06/09 03:27:40;;;;;;;35.70;13.73;;;13.00;99.90;;;;;;5125941;27;20065;-73
2022/06/09 03:30:07;;;;;;;47.50;13.93;;;12.90;99.90;;;;;;5127545;27;20125;-72
2022/06/09 03:32:32;;;;;;;48.65;14.52;;;13.00;99.90;;;;;;5133176;27;20050;-72
2022/06/09 03:34:58;;;;;;;42.50;13.95;;;12.90;99.90;;;;;;5122687;27;20046;-72
2022/06/09 03:37:24;;;;;;;44.08;15.13;;;12.90;99.90;;;;;;5127838;27;20046;-72
2022/06/09 03:39:50;;;;;;;41.97;14.02;;;12.90;99.90;;;;;;5125098;27;20440;-72
2022/06/09 03:42:15;;;;;;;42.45;14.38;;;12.90;99.90;;;;;;5119805;27;20114;-72
2022/06/09 03:44:41;;;;;;;46.28;14.30;;;12.90;99.90;;;;;;5121034;27;20175;-71
2022/06/09 03:47:08;;;;;;;43.47;14.23;;;12.90;99.90;;;;;;5128691;27;20501;-72
2022/06/09 03:49:34;;;;;;;58.38;15.18;;;12.90;99.90;;;;;;5128644;27;20117;-72
2022/06/09 03:52:00;;;;;;;47.35;13.98;;;12.90;99.90;;;;;;5139863;27;20207;-72
2022/06/09 03:54:25;;;;;;;46.17;14.10;;;12.90;99.90;;;;;;5126404;27;20038;-72
2022/06/09 03:56:51;;;;;;;46.42;15.15;;;12.90;99.90;;;;;;5112963;27;20042;-73
2022/06/09 03:59:17;;;;;;;44.45;14.27;;;12.90;99.90;;;;;;5126180;27;20527;-72
2022/06/09 04:01:43;;;;;;;42.15;14.02;;;13.00;99.90;;;;;;5123314;27;20486;-73
2022/06/09 04:04:09;;;;;;;57.20;14.30;;;13.00;99.90;;;;;;5127349;27;20031;-72
2022/06/09 04:06:35;;;;;;;42.15;14.27;;;13.10;99.90;;;;;;5120914;27;20143;-72
2022/06/09 04:09:00;;;;;;;49.13;14.90;;;13.00;99.90;;;;;;5126834;27;20046;-72
2022/06/09 04:11:26;;;;;;;40.22;13.38;;;13.20;99.90;;;;;;5124395;27;20408;-73
2022/06/09 04:13:52;;;;;;;42.20;14.45;;;13.20;99.90;;;;;;5127872;27;20094;-72
2022/06/09 04:16:25;;;;;;;47.88;15.48;;;13.10;99.90;;;;;;5123092;27;20489;-71
2022/06/09 04:18:52;;;;;;;45.05;15.27;;;13.20;99.90;;;;;;5121913;27;20070;-72
2022/06/09 04:21:19;;;;;;;54.22;15.38;;;13.20;99.90;;;;;;5104329;27;20046;-72
2022/06/09 04:23:45;;;;;;;40.22;14.55;;;13.30;99.90;;;;;;5138550;27;20039;-73
2022/06/09 04:26:18;;;;;;;38.42;13.85;;;13.40;99.90;;;;;;5130171;27;20042;-74
2022/06/09 04:28:44;;;;;;;35.72;14.85;;;13.50;99.90;;;;;;5125006;27;20042;-73
2022/06/09 04:31:11;;;;;;;32.50;14.02;;;13.50;99.90;;;;;;5121004;27;20047;-73
2022/06/09 04:33:37;;;;;;;33.15;13.70;;;13.60;99.90;;;;;;5121954;27;20083;-73
2022/06/09 04:36:04;;;;;;;36.53;13.50;;;13.60;99.90;;;;;;5119946;27;20046;-73
2022/06/09 04:38:29;;;;;;;29.55;12.63;;;13.70;99.90;;;;;;5123232;27;20454;-73
2022/06/09 04:40:56;;;;;;;30.92;12.48;;;13.80;99.90;;;;;;5126077;27;20125;-73
2022/06/09 04:43:21;;;;;;;27.98;11.32;;;13.80;99.90;;;;;;5123543;27;20038;-73
2022/06/09 04:45:47;;;;;;;29.73;10.70;;;13.90;99.90;;;;;;5142861;27;20041;-73
2022/06/09 04:48:14;;;;;;;30.88;11.00;;;13.90;99.90;;;;;;5124535;27;20054;-73
2022/06/09 04:50:40;;;;;;;26.35;10.95;;;14.00;99.90;;;;;;5108157;27;20097;-73
2022/06/09 04:53:08;;;;;;;34.13;11.25;;;14.00;99.90;;;;;;5125484;27;20043;-73
2022/06/09 04:55:35;;;;;;;26.13;10.93;;;14.00;99.90;;;;;;5119973;27;20100;-73
2022/06/09 04:58:01;;;;;;;32.55;10.93;;;14.10;99.90;;;;;;5117828;27;20061;-73
2022/06/09 05:00:27;;;;;;;29.38;10.50;;;14.20;99.90;;;;;;5135973;27;20027;-73
2022/06/09 05:02:59;;;;;;;26.58;10.60;;;14.20;99.90;;;;;;5130287;27;20035;-73
2022/06/09 05:05:29;;;;;;;25.48;9.98;;;14.20;99.90;;;;;;5115335;27;20459;-73
2022/06/09 05:07:55;;;;;;;25.50;10.35;;;14.20;99.90;;;;;;5118204;27;20101;-73
2022/06/09 05:10:22;;;;;;;24.85;9.68;;;14.20;99.90;;;;;;5138068;27;20026;-73
2022/06/09 05:12:47;;;;;;;27.17;9.57;;;14.30;99.90;;;;;;5122257;27;20043;-73
2022/06/09 05:15:17;;;;;;;22.08;9.45;;;14.30;99.90;;;;;;5139123;27;20050;-73
2022/06/09 05:17:43;;;;;;;23.55;9.43;;;14.30;99.90;;;;;;5122537;27;20047;-73
2022/06/09 05:20:11;;;;;;;31.17;10.07;;;14.30;99.90;;;;;;5121664;27;20621;-73
2022/06/09 05:22:37;;;;;;;25.63;9.40;;;14.40;99.90;;;;;;5118230;27;20492;-73
2022/06/09 05:25:03;;;;;;;23.60;9.75;;;14.40;99.90;;;;;;5121197;27;20074;-73
2022/06/09 05:27:29;;;;;;;21.65;8.43;;;14.40;99.90;;;;;;5138549;27;20485;-73
2022/06/09 05:29:55;;;;;;;23.75;9.00;;;14.60;99.90;;;;;;5119055;27;20111;-73
2022/06/09 05:32:22;;;;;;;22.08;8.93;;;14.50;99.90;;;;;;5138382;27;20576;-73
2022/06/09 05:34:48;;;;;;;23.65;8.73;;;14.50;99.90;;;;;;5118489;27;20043;-73
2022/06/09 05:37:14;;;;;;;20.67;8.88;;;14.50;99.90;;;;;;5122171;27;20420;-73
2022/06/09 05:45:10;;;;;;;14.75;8.32;;;14.70;99.90;;;;;;5134434;27;20422;-73
2022/06/09 05:47:36;;;;;;;20.35;8.98;;;14.70;99.90;;;;;;5119421;27;20477;-73
2022/06/09 05:50:03;;;;;;;18.98;8.32;;;14.80;99.90;;;;;;5120762;27;20054;-73
2022/06/09 05:52:29;;;;;;;17.80;8.02;;;14.80;99.90;;;;;;5138858;27;20445;-73
2022/06/09 05:54:56;;;;;;;18.00;8.38;;;14.90;99.90;;;;;;5119900;27;20045;-73
2022/06/09 05:57:22;;;;;;;21.90;9.05;;;14.90;99.90;;;;;;5120297;27;20934;-73
2022/06/09 05:59:50;;;;;;;17.00;10.57;;;15.00;99.90;;;;;;5123142;27;20461;-73
2022/06/09 06:02:16;;;;;;;16.20;10.88;;;15.00;99.90;;;;;;5136743;27;20111;-73
2022/06/09 06:04:43;;;;;;;17.27;10.30;;;15.10;99.90;;;;;;5119651;27;20039;-73
2022/06/09 06:07:09;;;;;;;20.02;11.15;;;15.00;99.90;;;;;;5126387;27;21173;-73
2022/06/09 06:09:35;;;;;;;18.40;11.20;;;15.00;99.90;;;;;;5123687;27;20031;-73
2022/06/09 06:12:03;;;;;;;22.10;12.55;;;15.10;99.90;;;;;;5121584;27;21045;-73
2022/06/09 06:14:30;;;;;;;16.52;11.95;;;15.10;99.90;;;;;;5119446;27;20370;-73
2022/06/09 06:16:55;;;;;;;19.42;13.13;;;15.20;99.90;;;;;;5126185;27;20105;-73
2022/06/09 06:19:23;;;;;;;17.20;12.85;;;15.20;99.90;;;;;;5107017;27;20026;-73
2022/06/09 06:21:49;;;;;;;23.98;13.65;;;15.30;99.90;;;;;;5124148;27;21920;-73
2022/06/09 06:24:16;;;;;;;21.45;13.90;;;15.40;99.90;;;;;;5137086;27;20408;-73
2022/06/09 06:26:42;;;;;;;20.33;12.88;;;15.40;99.90;;;;;;5138335;27;21199;-73
2022/06/09 06:29:13;;;;;;;17.17;12.30;;;15.50;99.90;;;;;;5122995;27;20038;-73
2022/06/09 06:31:38;;;;;;;19.05;12.18;;;15.50;99.90;;;;;;5148085;27;20047;-73
2022/06/09 06:34:04;;;;;;;16.85;11.70;;;15.40;99.90;;;;;;5142641;27;20087;-73
2022/06/09 06:36:30;;;;;;;17.13;12.18;;;15.50;99.90;;;;;;5146050;27;20103;-73
2022/06/09 06:38:56;;;;;;;18.73;11.82;;;15.50;99.90;;;;;;5129750;27;20037;-73
2022/06/09 06:41:22;;;;;;;14.75;12.30;;;15.60;99.90;;;;;;5143338;27;20023;-73
2022/06/09 06:43:49;;;;;;;17.33;12.45;;;15.60;99.90;;;;;;5141693;27;20041;-73
2022/06/09 06:46:16;;;;;;;17.27;12.30;;;15.60;99.90;;;;;;5150042;27;20428;-73
2022/06/09 06:48:42;;;;;;;14.27;11.77;;;15.70;99.90;;;;;;5136130;27;20392;-73
2022/06/09 06:51:08;;;;;;;14.88;11.60;;;15.80;99.90;;;;;;5126532;27;20039;-73
2022/06/09 06:53:35;;;;;;;20.58;11.60;;;15.90;99.90;;;;;;5128585;27;20034;-73
2022/06/09 06:56:01;;;;;;;15.52;11.73;;;16.00;99.90;;;;;;5142794;27;20497;-73
2022/06/09 06:58:26;;;;;;;15.70;10.70;;;16.20;99.90;;;;;;5139040;27;20118;-73
2022/06/09 07:00:52;;;;;;;17.40;11.45;;;16.20;99.90;;;;;;5129540;27;20031;-73
2022/06/09 07:03:18;;;;;;;13.02;10.60;;;16.30;99.90;;;;;;5127685;27;20091;-73
2022/06/09 07:05:43;;;;;;;17.15;10.10;;;16.50;99.90;;;;;;5144927;27;20067;-72
2022/06/09 07:08:09;;;;;;;11.85;9.57;;;16.50;99.90;;;;;;5151246;27;20560;-73
2022/06/09 07:10:35;;;;;;;14.45;8.52;;;16.50;99.90;;;;;;5148060;27;20034;-73
2022/06/09 07:13:02;;;;;;;12.95;9.02;;;16.60;99.90;;;;;;5122879;27;20419;-73
2022/06/09 07:15:28;;;;;;;17.00;10.13;;;16.60;99.90;;;;;;5126681;27;20039;-73
2022/06/09 07:17:54;;;;;;;14.55;9.10;;;16.60;99.90;;;;;;5153382;27;20398;-72
2022/06/09 07:20:20;;;;;;;11.35;7.97;;;16.80;99.90;;;;;;5151623;27;20034;-72
2022/06/09 07:22:46;;;;;;;14.23;7.63;;;17.00;99.90;;;;;;5122124;27;20123;-73
2022/06/09 07:25:15;;;;;;;12.35;7.05;;;17.10;99.90;;;;;;5148359;27;20129;-73
2022/06/09 07:27:41;;;;;;;11.55;6.68;;;17.00;99.90;;;;;;5145010;27;20091;-73
2022/06/09 07:30:08;;;;;;;11.15;6.60;;;17.00;99.90;;;;;;5141136;27;20038;-73
2022/06/09 07:32:35;;;;;;;9.35;5.75;;;17.10;99.90;;;;;;5137835;27;20038;-72
2022/06/09 07:35:01;;;;;;;11.15;6.28;;;17.30;99.90;;;;;;5135837;27;20066;-73
2022/06/09 07:37:27;;;;;;;10.02;5.18;;;17.50;99.90;;;;;;5146082;27;20042;-73
2022/06/09 07:39:53;;;;;;;7.38;4.78;;;17.70;99.90;;;;;;5145151;27;20031;-72
2022/06/09 07:42:18;;;;;;;7.85;4.88;;;17.80;99.90;;;;;;5132990;27;20497;-72
2022/06/09 07:44:45;;;;;;;7.93;4.80;;;17.80;99.90;;;;;;5145939;27;20481;-72
2022/06/09 07:47:11;;;;;;;9.18;4.35;;;18.10;99.90;;;;;;5140154;27;20175;-72
2022/06/09 07:49:36;;;;;;;9.20;4.60;;;18.20;99.90;;;;;;5143941;27;20563;-72
2022/06/09 07:52:02;;;;;;;7.90;4.13;;;18.30;99.90;;;;;;5148959;27;20662;-72
2022/06/09 07:54:28;;;;;;;9.65;3.80;;;18.40;99.90;;;;;;5133883;27;20042;-72
2022/06/09 07:56:54;;;;;;;9.63;3.10;;;18.50;99.90;;;;;;5134329;27;20480;-72
2022/06/09 07:59:20;;;;;;;6.85;2.97;;;18.60;99.90;;;;;;5153465;27;20492;-72
2022/06/09 08:01:46;;;;;;;7.53;2.90;;;18.60;99.90;;;;;;5134367;27;20034;-72
2022/06/09 08:04:13;;;;;;;8.15;2.80;;;18.60;99.90;;;;;;5143068;27;20035;-72
2022/06/09 08:06:39;;;;;;;14.63;3.00;;;18.70;99.90;;;;;;5148142;27;20123;-72
2022/06/09 08:09:05;;;;;;;8.25;2.75;;;18.70;99.90;;;;;;5132388;27;20038;-72
2022/06/09 08:11:34;;;;;;;7.57;2.50;;;18.70;99.90;;;;;;5140231;27;20088;-72
2022/06/09 08:14:02;;;;;;;8.27;2.20;;;18.60;99.90;;;;;;5134615;27;20070;-72
2022/06/09 08:16:28;;;;;;;4.95;2.20;;;18.70;99.90;;;;;;5128316;27;20062;-72
2022/06/09 08:18:54;;;;;;;6.10;2.40;;;18.90;99.90;;;;;;5136542;27;20084;-72
2022/06/09 08:21:20;;;;;;;9.40;2.50;;;18.80;99.90;;;;;;5146471;27;20524;-72
2022/06/09 08:23:46;;;;;;;5.97;1.60;;;18.90;99.90;;;;;;5152447;27;20034;-72
2022/06/09 08:26:12;;;;;;;4.00;1.67;;;18.90;99.90;;;;;;5150911;27;20493;-72
2022/06/09 08:28:37;;;;;;;4.53;1.20;;;19.00;99.90;;;;;;5152011;27;20396;-72
2022/06/09 08:31:03;;;;;;;5.63;1.30;;;19.10;99.90;;;;;;5148895;27;20552;-72
2022/06/09 08:33:29;;;;;;;4.95;1.20;;;19.10;99.90;;;;;;5151185;27;20480;-72
2022/06/09 08:35:55;;;;;;;3.65;1.13;;;19.30;99.90;;;;;;5127011;27;20636;-72
2022/06/09 08:38:21;;;;;;;9.00;1.80;;;19.30;99.90;;;;;;5143897;27;20129;-72
2022/06/09 08:41:17;;;;;;;4.15;1.20;;;19.50;99.90;;;;;;5152998;27;20491;-72
2022/06/09 08:43:54;;;;;;;5.90;1.30;;;19.70;99.90;;;;;;5127397;27;20504;-72
2022/06/09 08:46:40;;;;;;;3.90;1.10;;;19.80;99.90;;;;;;5132591;27;20089;-72
2022/06/09 08:49:17;;;;;;;3.88;1.40;;;19.80;99.90;;;;;;5124023;27;20050;-72
2022/06/09 08:51:47;;;;;;;6.35;1.20;;;19.80;99.90;;;;;;5129433;27;20043;-72
2022/06/09 08:54:18;;;;;;;5.05;1.40;;;19.80;99.90;;;;;;5148842;27;20054;-72
2022/06/09 08:56:45;;;;;;;4.32;1.48;;;19.70;99.90;;;;;;5141228;27;20129;-72
2022/06/09 08:59:19;;;;;;;9.55;1.80;;;19.70;99.90;;;;;;5151780;27;20079;-72
2022/06/09 09:01:56;;;;;;;3.85;1.10;;;19.80;99.90;;;;;;5146597;27;20059;-72
2022/06/09 09:04:30;;;;;;;6.55;1.35;;;19.90;99.90;;;;;;5140663;27;20062;-72
2022/06/09 09:07:01;;;;;;;5.28;1.30;;;20.10;99.90;;;;;;5150145;27;20035;-72
2022/06/09 09:09:31;;;;;;;5.80;1.60;;;20.00;99.90;;;;;;5151248;27;20046;-73
2022/06/09 09:12:37;;;;;;;6.78;1.60;;;19.80;99.90;;;;;;5146278;27;20045;-73
2022/06/09 09:15:36;;;;;;;5.20;1.45;;;19.50;99.90;;;;;;5126247;27;20039;-73
2022/06/09 09:18:29;;;;;;;5.85;1.10;;;19.20;99.90;;;;;;5138067;27;20083;-72
2022/06/09 09:21:10;;;;;;;4.63;1.30;;;19.20;99.90;;;;;;5125440;27;20071;-72
2022/06/09 09:23:46;;;;;;;7.35;1.42;;;19.10;99.90;;;;;;5145448;27;20039;-72
2022/06/09 09:26:19;;;;;;;3.92;1.30;;;19.10;99.90;;;;;;5144295;27;20035;-74
2022/06/09 09:28:50;;;;;;;6.18;1.60;;;19.40;99.90;;;;;;5143705;27;20084;-72
2022/06/09 09:31:25;;;;;;;4.38;1.52;;;19.40;99.90;;;;;;5146704;27;20058;-72
2022/06/09 09:33:51;;;;;;;4.68;1.15;;;19.50;99.90;;;;;;5149462;27;20062;-72
2022/06/09 09:36:26;;;;;;;3.70;1.15;;;19.70;99.90;;;;;;5145816;27;20488;-72
2022/06/09 09:39:24;;;;;;;4.70;0.98;;;19.70;99.90;;;;;;5127955;27;20077;-72
2022/06/09 09:42:08;;;;;;;7.88;1.50;;;19.60;99.90;;;;;;5109444;27;21267;-72
2022/06/09 09:44:34;;;;;;;4.72;1.50;;;19.50;99.90;;;;;;5139491;27;20049;-72
2022/06/09 09:47:01;;;;;;;5.45;1.45;;;19.40;99.90;;;;;;5130468;27;20550;-72
2022/06/09 09:49:43;;;;;;;6.90;1.52;;;19.20;99.90;;;;;;5109243;27;20039;-72
2022/06/09 09:52:39;;;;;;;4.53;1.33;;;18.90;99.90;;;;;;5148491;27;20034;-72
2022/06/09 09:55:25;;;;;;;6.35;1.83;;;18.90;99.90;;;;;;5142310;27;20065;-72
2022/06/09 09:58:13;;;;;;;7.97;1.60;;;18.80;99.90;;;;;;5140452;27;20133;-72
2022/06/09 10:00:40;;;;;;;6.65;1.60;;;19.10;99.90;;;;;;5129183;27;20146;-72
2022/06/09 10:08:59;;;;;;;6.60;1.33;;;20.10;99.90;;;;;;5122680;27;20070;-72
2022/06/09 10:14:39;;;;;;;7.28;1.73;;;20.50;99.90;;;;;;5133653;27;20054;-72
2022/06/09 10:17:18;;;;;;;8.60;1.77;;;20.60;99.90;;;;;;5137968;27;20082;-72
2022/06/09 10:19:52;;;;;;;6.72;1.55;;;20.80;99.90;;;;;;5146093;27;20365;-73
2022/06/09 10:22:20;;;;;;;7.80;1.55;;;21.00;99.90;;;;;;5128339;27;20100;-73
2022/06/09 10:24:56;;;;;;;5.07;1.52;;;21.20;99.90;;;;;;5156565;27;20038;-73
2022/06/09 10:27:26;;;;;;;5.32;1.20;;;21.30;99.90;;;;;;5127598;27;20128;-73
2022/06/09 10:30:12;;;;;;;6.78;1.40;;;21.30;99.90;;;;;;5150203;27;20039;-73
2022/06/09 10:32:55;;;;;;;6.35;1.25;;;21.40;99.90;;;;;;5140100;27;20118;-73
2022/06/09 10:35:26;;;;;;;7.00;1.40;;;21.60;99.90;;;;;;5152536;27;20446;-73
2022/06/09 10:38:04;;;;;;;6.03;1.63;;;21.90;99.90;;;;;;5132571;27;20041;-72
2022/06/09 10:40:44;;;;;;;6.00;1.27;;;21.90;99.90;;;;;;5138006;27;20397;-73
2022/06/09 10:43:39;;;;;;;6.57;1.35;;;22.10;99.90;;;;;;5151240;27;20040;-73
2022/06/09 10:46:26;;;;;;;4.38;1.27;;;22.10;99.90;;;;;;5134160;27;20031;-73
2022/06/09 10:55:20;;;;;;;5.82;1.30;;;22.30;99.90;;;;;;5136017;27;20388;-72
2022/06/09 10:58:01;;;;;;;7.38;1.20;;;22.40;99.90;;;;;;5138894;27;20038;-72
2022/06/09 11:00:29;;;;;;;3.67;1.17;;;22.70;99.90;;;;;;5151461;27;20487;-72
2022/06/09 11:02:59;;;;;;;4.30;1.00;;;22.80;98.20;;;;;;5134542;27;20401;-72
2022/06/09 11:06:04;;;;;;;6.45;1.02;;;22.80;99.90;;;;;;5147317;27;20606;-72
2022/06/09 11:08:41;;;;;;;7.43;1.25;;;22.90;99.90;;;;;;5143185;27;20435;-72
2022/06/09 11:11:48;;;;;;;3.72;1.20;;;22.70;97.60;;;;;;5151473;27;20533;-71
2022/06/09 11:14:37;;;;;;;6.13;1.40;;;22.90;98.10;;;;;;5081308;27;20527;-72
2022/06/09 11:17:15;;;;;;;6.32;1.20;;;23.00;98.90;;;;;;5113121;27;20047;-72
2022/06/09 11:20:35;;;;;;;3.47;1.00;;;22.90;95.10;;;;;;5144900;27;20404;-72
2022/06/09 11:23:19;;;;;;;3.65;0.98;;;22.80;98.80;;;;;;5095832;27;20036;-72
2022/06/09 11:26:11;;;;;;;7.57;1.20;;;23.10;99.90;;;;;;5128286;27;20386;-72
2022/06/09 11:28:56;;;;;;;3.78;1.30;;;23.30;98.20;;;;;;5146751;27;20031;-72
2022/06/09 11:32:16;;;;;;;4.15;0.90;;;23.10;95.00;;;;;;5149329;27;20031;-72
2022/06/09 11:34:58;;;;;;;5.75;1.30;;;23.00;95.10;;;;;;5072103;28;20491;-72
2022/06/09 11:37:42;;;;;;;;;;;22.80;96.30;;;;;;5117862;27;20386;-71
2022/06/09 11:40:36;;;;;;;4.90;1.10;;;22.60;97.50;;;;;;5146316;27;20630;-72
2022/06/09 11:43:13;;;;;;;4.28;1.10;;;22.70;99.90;;;;;;5135051;27;20495;-72
2022/06/09 11:45:54;;;;;;;5.60;1.50;;;22.70;97.10;;;;;;5126615;27;20051;-72
2022/06/09 11:48:30;;;;;;;5.00;1.40;;;22.90;99.90;;;;;;5132806;27;20477;-72
2022/06/09 11:50:57;;;;;;;5.72;1.35;;;22.80;99.50;;;;;;5135963;27;20438;-72
2022/06/09 11:53:26;;;;;;;7.22;1.30;;;23.00;99.90;;;;;;5149849;27;20035;-72
2022/06/09 11:56:33;;;;;;;7.28;1.48;;;23.30;97.90;;;;;;5135839;27;20035;-72
2022/06/09 11:59:20;;;;;;;4.40;1.30;;;23.40;99.90;;;;;;5135193;27;20034;-73
2022/06/09 12:02:21;;;;;;;7.45;1.65;;;23.60;99.20;;;;;;5130147;27;20481;-72
2022/06/09 12:04:47;;;;;;;8.50;1.63;;;23.40;95.60;;;;;;5145279;27;20034;-72
2022/06/09 12:07:28;;;;;;;6.25;1.73;;;23.20;95.90;;;;;;5134235;27;20095;-72
2022/06/09 12:10:23;;;;;;;6.25;1.58;;;23.20;97.50;;;;;;5125754;27;20392;-72
2022/06/09 12:13:04;;;;;;;4.25;1.20;;;23.30;97.30;;;;;;5125201;27;20031;-72
2022/06/09 12:15:50;;;;;;;8.18;1.40;;;23.40;95.50;;;;;;5139673;27;20062;-72
2022/06/09 12:18:17;;;;;;;7.78;1.60;;;23.40;95.90;;;;;;5140683;27;20605;-72
2022/06/09 12:20:46;;;;;;;5.90;1.60;;;23.60;91.70;;;;;;5131877;27;20381;-72
2022/06/09 12:23:28;;;;;;;5.82;1.65;;;23.40;94.80;;;;;;5146006;27;20027;-72
2022/06/09 12:26:09;;;;;;;6.13;1.55;;;23.50;97.80;;;;;;5130243;27;20443;-74
2022/06/09 12:28:49;;;;;;;4.78;1.40;;;23.50;95.00;;;;;;5103452;27;20388;-72
2022/06/09 12:31:24;;;;;;;8.23;1.25;;;23.30;93.70;;;;;;5123994;27;20396;-72
2022/06/09 12:34:00;;;;;;;4.85;1.00;;;23.40;94.30;;;;;;5123107;27;20162;-73
2022/06/09 12:36:52;;;;;;;2.60;1.02;;;23.50;95.10;;;;;;5139503;27;20039;-73
2022/06/09 12:39:21;;;;;;;4.97;1.10;;;23.90;91.10;;;;;;5121657;27;20498;-72
2022/06/09 12:41:59;;;;;;;3.88;1.20;;;24.10;92.70;;;;;;5139180;27;20540;-72
2022/06/09 12:44:40;;;;;;;5.13;1.33;;;24.30;90.20;;;;;;5122676;27;20569;-72
2022/06/09 12:47:16;;;;;;;5.75;1.40;;;24.40;87.70;;;;;;5145165;27;20516;-72
2022/06/09 12:49:43;;;;;;;5.38;1.20;;;24.50;91.10;;;;;;5144493;27;20553;-72
2022/06/09 12:52:40;;;;;;;5.97;1.65;;;24.50;88.00;;;;;;5150624;27;20416;-72
2022/06/09 12:55:19;;;;;;;7.97;1.42;;;24.80;85.60;;;;;;5128861;27;20054;-72
2022/06/09 12:57:49;;;;;;;3.65;1.08;;;24.70;82.80;;;;;;5127761;27;20090;-73
2022/06/09 13:00:14;;;;;;;6.10;1.50;;;24.70;80.80;;;;;;5144145;27;20045;-73
2022/06/09 13:02:41;;;;;;;6.15;1.65;;;24.50;82.00;;;;;;5145824;27;20116;-73
2022/06/09 13:05:16;;;;;;;7.28;1.52;;;24.10;82.40;;;;;;5148823;27;20034;-73
2022/06/09 13:07:53;;;;;;;8.75;1.48;;;23.70;87.10;;;;;;5132683;27;20051;-72
2022/06/09 13:10:29;;;;;;;5.38;1.60;;;23.60;93.50;;;;;;5146739;27;20039;-72
2022/06/09 13:13:38;;;;;;;6.93;1.50;;;23.70;91.80;;;;;;5142848;27;20393;-73
2022/06/09 13:16:15;;;;;;;8.30;1.60;;;23.60;93.00;;;;;;5073243;28;20032;-73
2022/06/09 13:18:47;;;;;;;6.28;1.40;;;23.30;90.80;;;;;;5142448;27;20047;-73
2022/06/09 13:21:31;;;;;;;6.13;1.40;;;23.10;93.00;;;;;;5138621;27;20492;-72